sensor_id;sensor_type;location;lat;lon;timestamp;P1;durP1;ratioP1;P2;durP2;ratioP2
22711;SDS011;11523;50.390;8.072;2023-11-19T00:01:11;9.57;;;6.45;;
22711;SDS011;11523;50.390;8.072;2023-11-19T00:03:36;7.85;;;6.47;;
22711;SDS011;11523;50.390;8.072;2023-11-19T00:06:02;9.73;;;6.35;;
22711;SDS011;11523;50.390;8.072;2023-11-19T00:08:29;6.68;;;5.85;;
22711;SDS011;11523;50.390;8.072;2023-11-19T00:10:55;8.18;;;6.30;;
22711;SDS011;11523;50.390;8.072;2023-11-19T00:13:21;9.13;;;6.72;;
22711;SDS011;11523;50.390;8.072;2023-11-19T00:15:48;9.82;;;6.20;;
22711;SDS011;11523;50.390;8.072;2023-11-19T00:18:14;6.22;;;5.30;;
22711;SDS011;11523;50.390;8.072;2023-11-19T00:20:40;5.90;;;5.30;;
22711;SDS011;11523;50.390;8.072;2023-11-19T00:23:09;5.10;;;4.70;;
22711;SDS011;11523;50.390;8.072;2023-11-19T00:25:35;6.72;;;5.38;;
22711;SDS011;11523;50.390;8.072;2023-11-19T00:28:03;5.43;;;4.85;;
22711;SDS011;11523;50.390;8.072;2023-11-19T00:30:29;6.40;;;5.28;;
22711;SDS011;11523;50.390;8.072;2023-11-19T00:32:56;6.45;;;5.85;;
22711;SDS011;11523;50.390;8.072;2023-11-19T00:35:22;6.85;;;6.25;;
22711;SDS011;11523;50.390;8.072;2023-11-19T00:37:48;7.68;;;6.60;;
22711;SDS011;11523;50.390;8.072;2023-11-19T00:40:14;6.82;;;6.18;;
22711;SDS011;11523;50.390;8.072;2023-11-19T00:42:43;7.47;;;6.72;;
22711;SDS011;11523;50.390;8.072;2023-11-19T00:45:09;7.07;;;6.38;;
22711;SDS011;11523;50.390;8.072;2023-11-19T00:47:37;8.30;;;6.93;;
22711;SDS011;11523;50.390;8.072;2023-11-19T00:50:03;7.93;;;6.75;;
22711;SDS011;11523;50.390;8.072;2023-11-19T00:52:29;7.80;;;6.63;;
22711;SDS011;11523;50.390;8.072;2023-11-19T00:55:01;7.65;;;6.57;;
22711;SDS011;11523;50.390;8.072;2023-11-19T00:57:27;9.80;;;7.43;;
22711;SDS011;11523;50.390;8.072;2023-11-19T00:59:53;9.65;;;7.53;;
22711;SDS011;11523;50.390;8.072;2023-11-19T01:02:19;8.57;;;7.07;;
22711;SDS011;11523;50.390;8.072;2023-11-19T01:04:45;8.68;;;7.10;;
22711;SDS011;11523;50.390;8.072;2023-11-19T01:07:11;6.88;;;6.20;;
22711;SDS011;11523;50.390;8.072;2023-11-19T01:09:38;11.82;;;7.50;;
22711;SDS011;11523;50.390;8.072;2023-11-19T01:12:04;8.70;;;6.70;;
22711;SDS011;11523;50.390;8.072;2023-11-19T01:14:30;7.63;;;6.70;;
22711;SDS011;11523;50.390;8.072;2023-11-19T01:16:56;9.60;;;6.43;;
22711;SDS011;11523;50.390;8.072;2023-11-19T01:19:22;9.75;;;6.72;;
22711;SDS011;11523;50.390;8.072;2023-11-19T01:21:49;8.38;;;6.93;;
22711;SDS011;11523;50.390;8.072;2023-11-19T01:24:15;8.23;;;7.43;;
22711;SDS011;11523;50.390;8.072;2023-11-19T01:26:41;8.85;;;7.75;;
22711;SDS011;11523;50.390;8.072;2023-11-19T01:29:10;7.63;;;6.93;;
22711;SDS011;11523;50.390;8.072;2023-11-19T01:31:38;8.00;;;6.90;;
22711;SDS011;11523;50.390;8.072;2023-11-19T01:34:04;7.72;;;6.93;;
22711;SDS011;11523;50.390;8.072;2023-11-19T01:36:30;9.50;;;7.40;;
22711;SDS011;11523;50.390;8.072;2023-11-19T01:38:56;8.50;;;7.70;;
22711;SDS011;11523;50.390;8.072;2023-11-19T01:41:22;10.35;;;7.60;;
22711;SDS011;11523;50.390;8.072;2023-11-19T01:43:49;11.15;;;7.38;;
22711;SDS011;11523;50.390;8.072;2023-11-19T01:46:15;8.10;;;7.30;;
22711;SDS011;11523;50.390;8.072;2023-11-19T01:48:42;10.13;;;8.10;;
22711;SDS011;11523;50.390;8.072;2023-11-19T01:51:10;9.18;;;7.80;;
22711;SDS011;11523;50.390;8.072;2023-11-19T01:53:37;8.55;;;7.50;;
22711;SDS011;11523;50.390;8.072;2023-11-19T01:56:03;9.40;;;8.13;;
22711;SDS011;11523;50.390;8.072;2023-11-19T01:58:30;15.45;;;8.43;;
22711;SDS011;11523;50.390;8.072;2023-11-19T02:00:56;9.80;;;8.52;;
22711;SDS011;11523;50.390;8.072;2023-11-19T02:03:23;8.93;;;7.72;;
22711;SDS011;11523;50.390;8.072;2023-11-19T02:05:51;10.10;;;7.45;;
22711;SDS011;11523;50.390;8.072;2023-11-19T02:08:18;8.80;;;7.90;;
22711;SDS011;11523;50.390;8.072;2023-11-19T02:10:44;8.35;;;7.55;;
22711;SDS011;11523;50.390;8.072;2023-11-19T02:13:10;8.65;;;7.50;;
22711;SDS011;11523;50.390;8.072;2023-11-19T02:15:38;9.05;;;7.90;;
22711;SDS011;11523;50.390;8.072;2023-11-19T02:18:21;12.27;;;8.05;;
22711;SDS011;11523;50.390;8.072;2023-11-19T02:20:51;12.27;;;9.57;;
22711;SDS011;11523;50.390;8.072;2023-11-19T02:23:17;10.05;;;8.32;;
22711;SDS011;11523;50.390;8.072;2023-11-19T02:25:45;12.50;;;8.68;;
22711;SDS011;11523;50.390;8.072;2023-11-19T02:28:14;9.77;;;8.52;;
22711;SDS011;11523;50.390;8.072;2023-11-19T02:30:41;10.40;;;8.35;;
22711;SDS011;11523;50.390;8.072;2023-11-19T02:33:07;9.77;;;7.82;;
22711;SDS011;11523;50.390;8.072;2023-11-19T02:35:33;8.43;;;7.50;;
22711;SDS011;11523;50.390;8.072;2023-11-19T02:37:59;10.07;;;7.90;;
22711;SDS011;11523;50.390;8.072;2023-11-19T02:40:26;8.02;;;6.88;;
22711;SDS011;11523;50.390;8.072;2023-11-19T02:42:53;8.88;;;7.38;;
22711;SDS011;11523;50.390;8.072;2023-11-19T02:45:23;9.50;;;7.90;;
22711;SDS011;11523;50.390;8.072;2023-11-19T02:47:49;9.57;;;7.68;;
22711;SDS011;11523;50.390;8.072;2023-11-19T02:50:15;23.95;;;8.68;;
22711;SDS011;11523;50.390;8.072;2023-11-19T02:52:44;9.00;;;8.02;;
22711;SDS011;11523;50.390;8.072;2023-11-19T02:55:11;10.40;;;7.88;;
22711;SDS011;11523;50.390;8.072;2023-11-19T02:57:40;12.60;;;7.85;;
22711;SDS011;11523;50.390;8.072;2023-11-19T03:00:17;10.13;;;8.20;;
22711;SDS011;11523;50.390;8.072;2023-11-19T03:02:44;11.55;;;8.15;;
22711;SDS011;11523;50.390;8.072;2023-11-19T03:05:13;12.48;;;7.47;;
22711;SDS011;11523;50.390;8.072;2023-11-19T03:07:40;8.82;;;7.93;;
22711;SDS011;11523;50.390;8.072;2023-11-19T03:10:07;9.05;;;7.70;;
22711;SDS011;11523;50.390;8.072;2023-11-19T03:12:34;11.25;;;8.38;;
22711;SDS011;11523;50.390;8.072;2023-11-19T03:15:00;11.07;;;7.88;;
22711;SDS011;11523;50.390;8.072;2023-11-19T03:17:26;10.82;;;8.38;;
22711;SDS011;11523;50.390;8.072;2023-11-19T03:19:52;9.93;;;8.60;;
22711;SDS011;11523;50.390;8.072;2023-11-19T03:22:18;9.38;;;8.40;;
22711;SDS011;11523;50.390;8.072;2023-11-19T03:24:45;10.77;;;8.85;;
22711;SDS011;11523;50.390;8.072;2023-11-19T03:27:11;11.25;;;8.30;;
22711;SDS011;11523;50.390;8.072;2023-11-19T03:29:37;12.50;;;8.75;;
22711;SDS011;11523;50.390;8.072;2023-11-19T03:32:03;10.20;;;9.07;;
22711;SDS011;11523;50.390;8.072;2023-11-19T03:34:29;13.55;;;9.57;;
22711;SDS011;11523;50.390;8.072;2023-11-19T03:36:55;10.70;;;9.05;;
22711;SDS011;11523;50.390;8.072;2023-11-19T03:39:22;14.88;;;9.32;;
22711;SDS011;11523;50.390;8.072;2023-11-19T03:41:50;12.60;;;8.77;;
22711;SDS011;11523;50.390;8.072;2023-11-19T03:44:15;11.05;;;8.90;;
22711;SDS011;11523;50.390;8.072;2023-11-19T03:46:41;12.70;;;9.00;;
22711;SDS011;11523;50.390;8.072;2023-11-19T03:49:08;10.43;;;8.07;;
22711;SDS011;11523;50.390;8.072;2023-11-19T03:51:33;6.80;;;5.72;;
22711;SDS011;11523;50.390;8.072;2023-11-19T03:54:00;11.30;;;8.20;;
22711;SDS011;11523;50.390;8.072;2023-11-19T03:56:26;10.57;;;7.53;;
22711;SDS011;11523;50.390;8.072;2023-11-19T03:58:52;10.80;;;6.32;;
22711;SDS011;11523;50.390;8.072;2023-11-19T04:01:18;7.88;;;6.18;;
22711;SDS011;11523;50.390;8.072;2023-11-19T04:03:44;8.32;;;6.22;;
22711;SDS011;11523;50.390;8.072;2023-11-19T04:06:10;3.83;;;3.22;;
22711;SDS011;11523;50.390;8.072;2023-11-19T04:08:36;3.15;;;2.30;;
22711;SDS011;11523;50.390;8.072;2023-11-19T04:11:05;2.05;;;1.48;;
22711;SDS011;11523;50.390;8.072;2023-11-19T04:13:31;1.70;;;1.60;;
22711;SDS011;11523;50.390;8.072;2023-11-19T04:15:57;1.77;;;1.50;;
22711;SDS011;11523;50.390;8.072;2023-11-19T04:18:23;1.55;;;1.45;;
22711;SDS011;11523;50.390;8.072;2023-11-19T04:20:49;4.55;;;1.90;;
22711;SDS011;11523;50.390;8.072;2023-11-19T04:23:16;1.98;;;1.77;;
22711;SDS011;11523;50.390;8.072;2023-11-19T04:25:41;2.40;;;2.03;;
22711;SDS011;11523;50.390;8.072;2023-11-19T04:28:08;1.95;;;1.83;;
22711;SDS011;11523;50.390;8.072;2023-11-19T04:30:34;1.58;;;1.17;;
22711;SDS011;11523;50.390;8.072;2023-11-19T04:33:00;2.92;;;1.25;;
22711;SDS011;11523;50.390;8.072;2023-11-19T04:35:26;1.95;;;1.23;;
22711;SDS011;11523;50.390;8.072;2023-11-19T04:37:52;2.20;;;1.23;;
22711;SDS011;11523;50.390;8.072;2023-11-19T04:40:18;1.13;;;1.02;;
22711;SDS011;11523;50.390;8.072;2023-11-19T04:42:44;5.15;;;1.38;;
22711;SDS011;11523;50.390;8.072;2023-11-19T04:45:10;3.17;;;1.35;;
22711;SDS011;11523;50.390;8.072;2023-11-19T04:47:36;1.85;;;1.52;;
22711;SDS011;11523;50.390;8.072;2023-11-19T04:50:02;1.95;;;1.40;;
22711;SDS011;11523;50.390;8.072;2023-11-19T04:52:28;1.67;;;1.40;;
22711;SDS011;11523;50.390;8.072;2023-11-19T04:54:54;3.42;;;1.73;;
22711;SDS011;11523;50.390;8.072;2023-11-19T04:57:20;2.47;;;1.58;;
22711;SDS011;11523;50.390;8.072;2023-11-19T04:59:46;5.25;;;2.25;;
22711;SDS011;11523;50.390;8.072;2023-11-19T05:02:12;2.85;;;1.60;;
22711;SDS011;11523;50.390;8.072;2023-11-19T05:04:42;3.10;;;1.35;;
22711;SDS011;11523;50.390;8.072;2023-11-19T05:07:09;0.70;;;0.70;;
22711;SDS011;11523;50.390;8.072;2023-11-19T05:09:35;0.60;;;0.60;;
22711;SDS011;11523;50.390;8.072;2023-11-19T05:12:01;0.65;;;0.60;;
22711;SDS011;11523;50.390;8.072;2023-11-19T05:14:27;0.95;;;0.65;;
22711;SDS011;11523;50.390;8.072;2023-11-19T05:16:59;2.45;;;0.57;;
22711;SDS011;11523;50.390;8.072;2023-11-19T05:19:25;0.90;;;0.60;;
22711;SDS011;11523;50.390;8.072;2023-11-19T05:21:51;1.30;;;0.80;;
22711;SDS011;11523;50.390;8.072;2023-11-19T05:24:17;1.00;;;0.70;;
22711;SDS011;11523;50.390;8.072;2023-11-19T05:26:44;0.73;;;0.65;;
22711;SDS011;11523;50.390;8.072;2023-11-19T05:29:10;1.10;;;0.60;;
22711;SDS011;11523;50.390;8.072;2023-11-19T05:31:36;0.70;;;0.52;;
22711;SDS011;11523;50.390;8.072;2023-11-19T05:34:08;0.55;;;0.50;;
22711;SDS011;11523;50.390;8.072;2023-11-19T05:36:34;2.15;;;0.50;;
22711;SDS011;11523;50.390;8.072;2023-11-19T05:39:00;0.40;;;0.40;;
22711;SDS011;11523;50.390;8.072;2023-11-19T05:41:28;0.50;;;0.50;;
22711;SDS011;11523;50.390;8.072;2023-11-19T05:43:54;0.95;;;0.50;;
22711;SDS011;11523;50.390;8.072;2023-11-19T05:46:20;3.08;;;0.60;;
22711;SDS011;11523;50.390;8.072;2023-11-19T05:48:46;1.48;;;0.50;;
22711;SDS011;11523;50.390;8.072;2023-11-19T05:51:18;0.45;;;0.35;;
22711;SDS011;11523;50.390;8.072;2023-11-19T05:53:44;1.95;;;0.60;;
22711;SDS011;11523;50.390;8.072;2023-11-19T05:56:10;0.80;;;0.50;;
22711;SDS011;11523;50.390;8.072;2023-11-19T05:58:37;2.85;;;0.65;;
22711;SDS011;11523;50.390;8.072;2023-11-19T06:01:04;1.73;;;1.00;;
22711;SDS011;11523;50.390;8.072;2023-11-19T06:03:32;0.60;;;0.60;;
22711;SDS011;11523;50.390;8.072;2023-11-19T06:05:58;1.13;;;0.70;;
22711;SDS011;11523;50.390;8.072;2023-11-19T06:08:24;1.67;;;0.93;;
22711;SDS011;11523;50.390;8.072;2023-11-19T06:10:52;1.20;;;0.90;;
22711;SDS011;11523;50.390;8.072;2023-11-19T06:13:18;1.15;;;1.10;;
22711;SDS011;11523;50.390;8.072;2023-11-19T06:15:44;2.45;;;1.30;;
22711;SDS011;11523;50.390;8.072;2023-11-19T06:18:10;1.52;;;0.90;;
22711;SDS011;11523;50.390;8.072;2023-11-19T06:20:39;1.17;;;1.02;;
22711;SDS011;11523;50.390;8.072;2023-11-19T06:23:06;1.10;;;0.80;;
22711;SDS011;11523;50.390;8.072;2023-11-19T06:25:32;2.53;;;1.38;;
22711;SDS011;11523;50.390;8.072;2023-11-19T06:28:00;1.27;;;0.80;;
22711;SDS011;11523;50.390;8.072;2023-11-19T06:30:26;2.53;;;0.82;;
22711;SDS011;11523;50.390;8.072;2023-11-19T06:32:53;3.40;;;1.10;;
22711;SDS011;11523;50.390;8.072;2023-11-19T06:35:19;0.80;;;0.80;;
22711;SDS011;11523;50.390;8.072;2023-11-19T06:37:45;1.63;;;0.80;;
22711;SDS011;11523;50.390;8.072;2023-11-19T06:40:11;1.70;;;1.00;;
22711;SDS011;11523;50.390;8.072;2023-11-19T06:42:37;1.13;;;1.00;;
22711;SDS011;11523;50.390;8.072;2023-11-19T06:45:04;2.63;;;0.90;;
22711;SDS011;11523;50.390;8.072;2023-11-19T06:47:31;2.47;;;1.20;;
22711;SDS011;11523;50.390;8.072;2023-11-19T06:49:57;2.15;;;1.10;;
22711;SDS011;11523;50.390;8.072;2023-11-19T06:52:23;5.25;;;0.90;;
22711;SDS011;11523;50.390;8.072;2023-11-19T06:54:56;3.33;;;0.93;;
22711;SDS011;11523;50.390;8.072;2023-11-19T06:57:22;2.97;;;1.38;;
22711;SDS011;11523;50.390;8.072;2023-11-19T06:59:48;2.78;;;1.30;;
22711;SDS011;11523;50.390;8.072;2023-11-19T07:02:14;2.15;;;1.30;;
22711;SDS011;11523;50.390;8.072;2023-11-19T07:04:40;1.38;;;1.27;;
22711;SDS011;11523;50.390;8.072;2023-11-19T07:07:07;4.20;;;1.55;;
22711;SDS011;11523;50.390;8.072;2023-11-19T07:09:33;2.30;;;1.15;;
22711;SDS011;11523;50.390;8.072;2023-11-19T07:11:59;1.70;;;1.35;;
22711;SDS011;11523;50.390;8.072;2023-11-19T07:14:26;2.00;;;1.10;;
22711;SDS011;11523;50.390;8.072;2023-11-19T07:16:53;4.40;;;1.40;;
22711;SDS011;11523;50.390;8.072;2023-11-19T07:19:20;4.03;;;1.38;;
22711;SDS011;11523;50.390;8.072;2023-11-19T07:21:46;4.78;;;1.90;;
22711;SDS011;11523;50.390;8.072;2023-11-19T07:24:12;5.07;;;2.30;;
22711;SDS011;11523;50.390;8.072;2023-11-19T07:26:45;3.10;;;1.90;;
22711;SDS011;11523;50.390;8.072;2023-11-19T07:29:12;4.67;;;2.10;;
22711;SDS011;11523;50.390;8.072;2023-11-19T07:31:38;3.80;;;1.77;;
22711;SDS011;11523;50.390;8.072;2023-11-19T07:34:04;5.25;;;1.73;;
22711;SDS011;11523;50.390;8.072;2023-11-19T07:36:31;2.90;;;1.58;;
22711;SDS011;11523;50.390;8.072;2023-11-19T07:38:57;4.60;;;1.40;;
22711;SDS011;11523;50.390;8.072;2023-11-19T07:41:23;5.38;;;1.55;;
22711;SDS011;11523;50.390;8.072;2023-11-19T07:43:50;3.33;;;1.52;;
22711;SDS011;11523;50.390;8.072;2023-11-19T07:46:16;5.78;;;1.80;;
22711;SDS011;11523;50.390;8.072;2023-11-19T07:48:45;7.57;;;1.65;;
22711;SDS011;11523;50.390;8.072;2023-11-19T07:51:12;8.27;;;1.92;;
22711;SDS011;11523;50.390;8.072;2023-11-19T07:53:38;5.80;;;1.85;;
22711;SDS011;11523;50.390;8.072;2023-11-19T07:56:05;8.15;;;2.15;;
22711;SDS011;11523;50.390;8.072;2023-11-19T07:58:31;5.13;;;1.70;;
22711;SDS011;11523;50.390;8.072;2023-11-19T08:00:57;9.20;;;2.17;;
22711;SDS011;11523;50.390;8.072;2023-11-19T08:03:23;4.78;;;2.08;;
22711;SDS011;11523;50.390;8.072;2023-11-19T08:05:49;4.80;;;1.95;;
22711;SDS011;11523;50.390;8.072;2023-11-19T08:08:15;9.23;;;3.38;;
22711;SDS011;11523;50.390;8.072;2023-11-19T08:10:41;6.80;;;2.00;;
22711;SDS011;11523;50.390;8.072;2023-11-19T08:13:09;9.55;;;2.10;;
22711;SDS011;11523;50.390;8.072;2023-11-19T08:15:35;8.70;;;2.20;;
22711;SDS011;11523;50.390;8.072;2023-11-19T08:18:01;11.05;;;2.88;;
22711;SDS011;11523;50.390;8.072;2023-11-19T08:20:27;9.43;;;2.40;;
22711;SDS011;11523;50.390;8.072;2023-11-19T08:22:53;13.70;;;2.88;;
22711;SDS011;11523;50.390;8.072;2023-11-19T08:25:19;13.25;;;2.88;;
22711;SDS011;11523;50.390;8.072;2023-11-19T08:27:45;12.70;;;3.20;;
22711;SDS011;11523;50.390;8.072;2023-11-19T08:30:11;11.32;;;2.60;;
22711;SDS011;11523;50.390;8.072;2023-11-19T08:32:38;19.33;;;3.90;;
22711;SDS011;11523;50.390;8.072;2023-11-19T08:35:04;11.57;;;2.85;;
22711;SDS011;11523;50.390;8.072;2023-11-19T08:37:30;8.68;;;2.60;;
22711;SDS011;11523;50.390;8.072;2023-11-19T08:39:56;4.45;;;1.70;;
22711;SDS011;11523;50.390;8.072;2023-11-19T08:42:22;11.75;;;3.00;;
22711;SDS011;11523;50.390;8.072;2023-11-19T08:44:48;14.23;;;2.60;;
22711;SDS011;11523;50.390;8.072;2023-11-19T08:47:15;9.90;;;2.67;;
22711;SDS011;11523;50.390;8.072;2023-11-19T08:49:43;8.27;;;2.30;;
22711;SDS011;11523;50.390;8.072;2023-11-19T08:52:09;9.85;;;3.10;;
22711;SDS011;11523;50.390;8.072;2023-11-19T08:54:35;10.57;;;2.30;;
22711;SDS011;11523;50.390;8.072;2023-11-19T08:57:01;10.57;;;2.67;;
22711;SDS011;11523;50.390;8.072;2023-11-19T08:59:28;8.88;;;2.22;;
22711;SDS011;11523;50.390;8.072;2023-11-19T09:01:54;4.78;;;1.50;;
22711;SDS011;11523;50.390;8.072;2023-11-19T09:04:19;7.90;;;1.77;;
22711;SDS011;11523;50.390;8.072;2023-11-19T09:06:47;11.60;;;2.38;;
22711;SDS011;11523;50.390;8.072;2023-11-19T09:09:13;7.70;;;2.28;;
22711;SDS011;11523;50.390;8.072;2023-11-19T09:11:39;11.52;;;2.90;;
22711;SDS011;11523;50.390;8.072;2023-11-19T09:14:05;11.48;;;2.22;;
22711;SDS011;11523;50.390;8.072;2023-11-19T09:16:31;13.52;;;2.75;;
22711;SDS011;11523;50.390;8.072;2023-11-19T09:18:57;10.60;;;2.20;;
22711;SDS011;11523;50.390;8.072;2023-11-19T09:21:24;6.97;;;2.40;;
22711;SDS011;11523;50.390;8.072;2023-11-19T09:23:50;8.50;;;2.25;;
22711;SDS011;11523;50.390;8.072;2023-11-19T09:26:18;6.70;;;1.75;;
22711;SDS011;11523;50.390;8.072;2023-11-19T09:28:43;2.63;;;1.35;;
22711;SDS011;11523;50.390;8.072;2023-11-19T09:31:16;11.20;;;2.13;;
22711;SDS011;11523;50.390;8.072;2023-11-19T09:33:42;9.85;;;2.17;;
22711;SDS011;11523;50.390;8.072;2023-11-19T09:36:09;8.68;;;2.00;;
22711;SDS011;11523;50.390;8.072;2023-11-19T09:38:36;11.25;;;2.72;;
22711;SDS011;11523;50.390;8.072;2023-11-19T09:41:06;8.10;;;2.35;;
22711;SDS011;11523;50.390;8.072;2023-11-19T09:43:37;6.88;;;2.03;;
22711;SDS011;11523;50.390;8.072;2023-11-19T09:46:07;8.65;;;2.58;;
22711;SDS011;11523;50.390;8.072;2023-11-19T09:48:36;7.65;;;2.50;;
22711;SDS011;11523;50.390;8.072;2023-11-19T09:51:03;11.00;;;2.90;;
22711;SDS011;11523;50.390;8.072;2023-11-19T09:53:30;9.68;;;2.90;;
22711;SDS011;11523;50.390;8.072;2023-11-19T09:55:56;9.52;;;2.15;;
22711;SDS011;11523;50.390;8.072;2023-11-19T09:58:23;8.13;;;2.63;;
22711;SDS011;11523;50.390;8.072;2023-11-19T10:00:49;7.80;;;2.70;;
22711;SDS011;11523;50.390;8.072;2023-11-19T10:03:16;11.57;;;2.80;;
22711;SDS011;11523;50.390;8.072;2023-11-19T10:05:43;14.07;;;2.85;;
22711;SDS011;11523;50.390;8.072;2023-11-19T10:08:08;12.07;;;2.80;;
22711;SDS011;11523;50.390;8.072;2023-11-19T10:10:36;9.60;;;2.83;;
22711;SDS011;11523;50.390;8.072;2023-11-19T10:13:02;14.48;;;2.65;;
22711;SDS011;11523;50.390;8.072;2023-11-19T10:15:28;9.40;;;2.58;;
22711;SDS011;11523;50.390;8.072;2023-11-19T10:17:55;11.32;;;2.30;;
22711;SDS011;11523;50.390;8.072;2023-11-19T10:20:22;9.30;;;2.20;;
22711;SDS011;11523;50.390;8.072;2023-11-19T10:22:48;10.35;;;2.60;;
22711;SDS011;11523;50.390;8.072;2023-11-19T10:25:24;7.32;;;2.47;;
22711;SDS011;11523;50.390;8.072;2023-11-19T10:27:51;9.00;;;2.50;;
22711;SDS011;11523;50.390;8.072;2023-11-19T10:30:21;7.40;;;2.63;;
22711;SDS011;11523;50.390;8.072;2023-11-19T10:35:32;9.32;;;2.30;;
22711;SDS011;11523;50.390;8.072;2023-11-19T10:38:01;5.82;;;2.38;;
22711;SDS011;11523;50.390;8.072;2023-11-19T10:40:40;7.03;;;1.63;;
22711;SDS011;11523;50.390;8.072;2023-11-19T10:43:06;7.05;;;1.85;;
22711;SDS011;11523;50.390;8.072;2023-11-19T10:45:35;8.82;;;2.47;;
22711;SDS011;11523;50.390;8.072;2023-11-19T10:48:01;12.15;;;3.25;;
22711;SDS011;11523;50.390;8.072;2023-11-19T10:50:31;9.02;;;2.75;;
22711;SDS011;11523;50.390;8.072;2023-11-19T10:52:57;11.23;;;2.70;;
22711;SDS011;11523;50.390;8.072;2023-11-19T10:55:26;6.70;;;2.38;;
22711;SDS011;11523;50.390;8.072;2023-11-19T10:57:53;12.10;;;2.65;;
22711;SDS011;11523;50.390;8.072;2023-11-19T11:00:22;9.45;;;2.72;;
22711;SDS011;11523;50.390;8.072;2023-11-19T11:02:50;8.93;;;2.60;;
22711;SDS011;11523;50.390;8.072;2023-11-19T11:05:20;11.23;;;3.58;;
22711;SDS011;11523;50.390;8.072;2023-11-19T11:07:46;9.52;;;2.22;;
22711;SDS011;11523;50.390;8.072;2023-11-19T11:10:14;11.90;;;2.97;;
22711;SDS011;11523;50.390;8.072;2023-11-19T11:12:41;7.97;;;2.30;;
22711;SDS011;11523;50.390;8.072;2023-11-19T11:15:15;10.80;;;3.03;;
22711;SDS011;11523;50.390;8.072;2023-11-19T11:17:44;11.70;;;2.90;;
22711;SDS011;11523;50.390;8.072;2023-11-19T11:20:10;13.20;;;3.33;;
22711;SDS011;11523;50.390;8.072;2023-11-19T11:22:41;15.65;;;3.60;;
22711;SDS011;11523;50.390;8.072;2023-11-19T11:25:23;11.93;;;3.23;;
22711;SDS011;11523;50.390;8.072;2023-11-19T11:28:05;13.10;;;3.33;;
22711;SDS011;11523;50.390;8.072;2023-11-19T11:38:41;12.23;;;3.13;;
22711;SDS011;11523;50.390;8.072;2023-11-19T11:41:20;8.15;;;2.72;;
22711;SDS011;11523;50.390;8.072;2023-11-19T11:43:48;10.50;;;3.03;;
22711;SDS011;11523;50.390;8.072;2023-11-19T11:49:00;6.13;;;1.92;;
22711;SDS011;11523;50.390;8.072;2023-11-19T11:51:57;11.55;;;2.88;;
22711;SDS011;11523;50.390;8.072;2023-11-19T11:59:47;14.15;;;3.33;;
22711;SDS011;11523;50.390;8.072;2023-11-19T12:02:14;9.82;;;2.58;;
22711;SDS011;11523;50.390;8.072;2023-11-19T12:04:41;5.70;;;1.67;;
22711;SDS011;11523;50.390;8.072;2023-11-19T12:07:12;11.90;;;3.38;;
22711;SDS011;11523;50.390;8.072;2023-11-19T12:09:41;10.85;;;3.03;;
22711;SDS011;11523;50.390;8.072;2023-11-19T12:12:17;7.18;;;2.05;;
22711;SDS011;11523;50.390;8.072;2023-11-19T12:20:06;10.07;;;3.10;;
22711;SDS011;11523;50.390;8.072;2023-11-19T12:22:40;10.10;;;2.60;;
22711;SDS011;11523;50.390;8.072;2023-11-19T12:25:09;10.80;;;3.25;;
22711;SDS011;11523;50.390;8.072;2023-11-19T12:27:37;10.18;;;2.92;;
22711;SDS011;11523;50.390;8.072;2023-11-19T12:30:05;5.50;;;2.20;;
22711;SDS011;11523;50.390;8.072;2023-11-19T12:32:37;10.40;;;2.72;;
22711;SDS011;11523;50.390;8.072;2023-11-19T12:35:04;12.30;;;1.90;;
22711;SDS011;11523;50.390;8.072;2023-11-19T12:37:30;6.38;;;2.25;;
22711;SDS011;11523;50.390;8.072;2023-11-19T12:39:56;6.22;;;2.50;;
22711;SDS011;11523;50.390;8.072;2023-11-19T12:42:34;7.85;;;2.20;;
22711;SDS011;11523;50.390;8.072;2023-11-19T12:45:01;8.52;;;2.25;;
22711;SDS011;11523;50.390;8.072;2023-11-19T12:47:27;6.50;;;2.20;;
22711;SDS011;11523;50.390;8.072;2023-11-19T12:49:59;10.50;;;3.40;;
22711;SDS011;11523;50.390;8.072;2023-11-19T12:52:25;8.35;;;2.20;;
22711;SDS011;11523;50.390;8.072;2023-11-19T12:54:57;7.32;;;2.30;;
22711;SDS011;11523;50.390;8.072;2023-11-19T12:57:39;8.18;;;2.22;;
22711;SDS011;11523;50.390;8.072;2023-11-19T13:00:06;8.18;;;2.90;;
22711;SDS011;11523;50.390;8.072;2023-11-19T13:02:54;10.23;;;2.72;;
22711;SDS011;11523;50.390;8.072;2023-11-19T13:07:46;7.97;;;2.80;;
22711;SDS011;11523;50.390;8.072;2023-11-19T13:10:12;8.95;;;2.47;;
22711;SDS011;11523;50.390;8.072;2023-11-19T13:12:38;12.00;;;2.85;;
22711;SDS011;11523;50.390;8.072;2023-11-19T13:15:04;12.73;;;2.22;;
22711;SDS011;11523;50.390;8.072;2023-11-19T13:17:30;10.68;;;2.42;;
22711;SDS011;11523;50.390;8.072;2023-11-19T13:19:56;11.95;;;3.03;;
22711;SDS011;11523;50.390;8.072;2023-11-19T13:22:22;7.35;;;2.55;;
22711;SDS011;11523;50.390;8.072;2023-11-19T13:24:48;9.32;;;2.53;;
22711;SDS011;11523;50.390;8.072;2023-11-19T13:27:14;7.35;;;2.22;;
22711;SDS011;11523;50.390;8.072;2023-11-19T13:29:40;9.88;;;2.47;;
22711;SDS011;11523;50.390;8.072;2023-11-19T13:32:06;6.70;;;1.92;;
22711;SDS011;11523;50.390;8.072;2023-11-19T13:34:33;7.75;;;2.50;;
22711;SDS011;11523;50.390;8.072;2023-11-19T13:36:59;11.23;;;2.65;;
22711;SDS011;11523;50.390;8.072;2023-11-19T13:39:25;3.17;;;1.52;;
22711;SDS011;11523;50.390;8.072;2023-11-19T13:41:51;7.30;;;2.55;;
22711;SDS011;11523;50.390;8.072;2023-11-19T13:44:17;11.20;;;3.97;;
22711;SDS011;11523;50.390;8.072;2023-11-19T13:46:44;8.88;;;2.25;;
22711;SDS011;11523;50.390;8.072;2023-11-19T13:49:11;11.65;;;2.55;;
22711;SDS011;11523;50.390;8.072;2023-11-19T13:51:36;8.32;;;2.45;;
22711;SDS011;11523;50.390;8.072;2023-11-19T13:54:02;8.02;;;2.75;;
22711;SDS011;11523;50.390;8.072;2023-11-19T13:56:28;8.63;;;2.58;;
22711;SDS011;11523;50.390;8.072;2023-11-19T13:58:54;13.30;;;2.50;;
22711;SDS011;11523;50.390;8.072;2023-11-19T14:01:20;7.32;;;2.03;;
22711;SDS011;11523;50.390;8.072;2023-11-19T14:03:46;5.78;;;1.95;;
22711;SDS011;11523;50.390;8.072;2023-11-19T14:06:12;11.82;;;2.92;;
22711;SDS011;11523;50.390;8.072;2023-11-19T14:08:38;8.13;;;2.53;;
22711;SDS011;11523;50.390;8.072;2023-11-19T14:11:04;8.93;;;2.78;;
22711;SDS011;11523;50.390;8.072;2023-11-19T14:13:31;10.15;;;2.60;;
22711;SDS011;11523;50.390;8.072;2023-11-19T14:15:57;9.43;;;2.47;;
22711;SDS011;11523;50.390;8.072;2023-11-19T14:18:23;7.07;;;2.45;;
22711;SDS011;11523;50.390;8.072;2023-11-19T14:20:49;8.52;;;1.80;;
22711;SDS011;11523;50.390;8.072;2023-11-19T14:23:15;9.38;;;2.17;;
22711;SDS011;11523;50.390;8.072;2023-11-19T14:25:41;9.35;;;2.05;;
22711;SDS011;11523;50.390;8.072;2023-11-19T14:28:08;10.48;;;2.70;;
22711;SDS011;11523;50.390;8.072;2023-11-19T14:30:34;9.32;;;2.10;;
22711;SDS011;11523;50.390;8.072;2023-11-19T14:33:00;10.73;;;2.50;;
22711;SDS011;11523;50.390;8.072;2023-11-19T14:35:26;9.23;;;3.00;;
22711;SDS011;11523;50.390;8.072;2023-11-19T14:37:52;14.15;;;2.25;;
22711;SDS011;11523;50.390;8.072;2023-11-19T14:40:18;8.50;;;2.40;;
22711;SDS011;11523;50.390;8.072;2023-11-19T14:42:44;13.18;;;2.63;;
22711;SDS011;11523;50.390;8.072;2023-11-19T14:45:10;2.20;;;1.23;;
22711;SDS011;11523;50.390;8.072;2023-11-19T14:47:37;7.47;;;2.17;;
22711;SDS011;11523;50.390;8.072;2023-11-19T14:50:03;3.13;;;1.17;;
22711;SDS011;11523;50.390;8.072;2023-11-19T14:52:29;10.00;;;3.20;;
22711;SDS011;11523;50.390;8.072;2023-11-19T14:54:55;11.18;;;2.47;;
22711;SDS011;11523;50.390;8.072;2023-11-19T14:57:21;7.07;;;1.90;;
22711;SDS011;11523;50.390;8.072;2023-11-19T14:59:47;9.93;;;2.50;;
22711;SDS011;11523;50.390;8.072;2023-11-19T15:02:13;9.75;;;2.42;;
22711;SDS011;11523;50.390;8.072;2023-11-19T15:04:39;12.32;;;2.50;;
22711;SDS011;11523;50.390;8.072;2023-11-19T15:07:07;6.80;;;1.75;;
22711;SDS011;11523;50.390;8.072;2023-11-19T15:09:33;13.20;;;2.97;;